Greenville, Iowa
Current Conditions -  °F | °C
As of 4:53 PM on Saturday 22 Nov 2014 (Local Time) from KSPW Reporting Station
Haze Haze  
Wind Chill: 32°   Ceiling: Unl
Heat Index: 39°   Visibility: 3mi
Dew Point: 36°   Wind: 10mph
Humidity: 89%   Direction: 160°SSE
Pressure: 29.57"   Gusts: NA
Location:  43.02°N, 95.15°W
Report Text: KSPW 222253Z AUTO 16009KT 3SM BR CLR 04/02 A2957 RMK AO2 SLP025 T00390022 TSNO
Loading
Personal Weather Stations






























Interactive Weather Map New forecast layout! Learn more

10-Day Weather Forecast

Advertisements
Track Severe Weather on mobile